createdAt,value
2022-11-16T00:01:10.363Z,92542.13
2022-11-16T00:04:14.273Z,92528.03
2022-11-16T00:07:18.764Z,92540.38
2022-11-16T00:10:22.524Z,92545.50
2022-11-16T00:13:25.452Z,92544.22
2022-11-16T00:16:29.661Z,92549.84
2022-11-16T00:19:33.280Z,92550.22
2022-11-16T00:22:36.873Z,92558.78
2022-11-16T00:25:40.465Z,92564.19
2022-11-16T00:28:44.117Z,92563.19
2022-11-16T00:31:48.534Z,92565.25
2022-11-16T00:34:51.470Z,92561.97
2022-11-16T00:37:54.628Z,92561.97
2022-11-16T00:40:57.671Z,92572.66
2022-11-16T00:44:01.717Z,92569.16
2022-11-16T00:47:05.541Z,92563.81
2022-11-16T00:50:09.118Z,92558.94
2022-11-16T00:53:19.783Z,92560.00
2022-11-16T00:56:23.390Z,92554.72
2022-11-16T00:59:26.391Z,92568.97
2022-11-16T01:02:33.006Z,92555.91
2022-11-16T01:05:36.482Z,92557.31
2022-11-16T01:08:40.797Z,92558.06
2022-11-16T01:12:03.026Z,92557.03
2022-11-16T01:15:10.050Z,92555.13
2022-11-16T01:18:13.791Z,92547.38
2022-11-16T01:21:18.273Z,92557.09
2022-11-16T01:24:22.080Z,92551.59
2022-11-16T01:27:26.408Z,92557.22
2022-11-16T01:30:30.895Z,92569.25
2022-11-16T01:33:43.015Z,92552.38
2022-11-16T01:36:55.778Z,92562.28
2022-11-16T01:40:02.836Z,92559.44
2022-11-16T01:43:20.950Z,92565.09
2022-11-16T01:46:26.191Z,92561.88
2022-11-16T01:49:35.596Z,92558.50
2022-11-16T01:52:45.430Z,92553.19
2022-11-16T01:55:50.169Z,92559.03
2022-11-16T01:59:00.740Z,92556.28
2022-11-16T02:02:06.214Z,92548.19
2022-11-16T02:05:14.340Z,92538.66
2022-11-16T02:08:47.147Z,92543.19
2022-11-16T02:12:44.389Z,92523.16
2022-11-16T02:15:55.274Z,92506.88
2022-11-16T02:19:44.387Z,92522.13
2022-11-16T02:23:11.295Z,92519.03
2022-11-16T02:26:27.436Z,92507.56
2022-11-16T02:29:44.966Z,92507.03
2022-11-16T02:32:58.554Z,92500.06
2022-11-16T02:36:05.858Z,92496.91
2022-11-16T02:39:15.730Z,92496.53
2022-11-16T02:42:27.115Z,92491.59
2022-11-16T02:45:36.533Z,92482.97
2022-11-16T02:48:46.865Z,92482.50
2022-11-16T02:51:52.933Z,92476.00
2022-11-16T02:54:57.145Z,92467.34
2022-11-16T02:58:07.148Z,92467.09
2022-11-16T03:01:30.656Z,92466.13
2022-11-16T03:04:45.503Z,92462.00
2022-11-16T03:07:56.363Z,92458.91
2022-11-16T03:11:26.256Z,92432.44
2022-11-16T03:14:45.896Z,92423.63
2022-11-16T03:17:51.268Z,92417.09
2022-11-16T03:21:21.161Z,92408.31
2022-11-16T03:24:25.089Z,92396.16
2022-11-16T03:27:51.752Z,92376.59
2022-11-16T03:31:06.571Z,92385.69
2022-11-16T03:34:17.135Z,92386.66
2022-11-16T03:37:21.041Z,92383.25
2022-11-16T03:40:27.798Z,92385.81
2022-11-16T03:43:31.994Z,92384.72
2022-11-16T03:46:36.270Z,92381.56
2022-11-16T03:49:45.490Z,92379.03
2022-11-16T03:52:50.977Z,92368.78
2022-11-16T03:55:54.304Z,92379.59
2022-11-16T03:58:57.662Z,92371.69
2022-11-16T04:02:00.726Z,92363.47
2022-11-16T04:05:23.090Z,92356.66
2022-11-16T04:08:45.140Z,92352.56
2022-11-16T04:12:09.674Z,92359.25
2022-11-16T04:15:32.396Z,92348.25
2022-11-16T04:18:55.837Z,92342.06
2022-11-16T04:22:24.950Z,92331.72
2022-11-16T04:25:35.084Z,92314.31
2022-11-16T04:28:40.172Z,92311.88
2022-11-16T04:32:01.517Z,92305.44
2022-11-16T04:35:23.397Z,92287.19
2022-11-16T04:38:26.867Z,92282.22
2022-11-16T04:41:50.815Z,92276.38
2022-11-16T04:45:12.595Z,92273.13
2022-11-16T04:48:22.902Z,92263.38
2022-11-16T04:51:29.339Z,92267.88
2022-11-16T04:54:33.659Z,92267.13
2022-11-16T04:57:38.445Z,92261.00
2022-11-16T05:00:42.404Z,92244.38
2022-11-16T05:03:47.594Z,92253.44
2022-11-16T05:06:51.458Z,92249.47
2022-11-16T05:09:55.887Z,92252.25
2022-11-16T05:12:59.932Z,92255.53
2022-11-16T05:16:04.367Z,92246.41
2022-11-16T05:19:26.221Z,92243.69
2022-11-16T05:22:31.214Z,92240.13
2022-11-16T05:25:37.305Z,92243.03
2022-11-16T05:28:45.334Z,92238.66
2022-11-16T05:31:49.244Z,92240.78
2022-11-16T05:34:54.512Z,92230.75
2022-11-16T05:38:00.762Z,92227.53
2022-11-16T05:41:04.505Z,92225.81
2022-11-16T05:44:08.563Z,92216.13
2022-11-16T05:47:12.594Z,92218.94
2022-11-16T05:50:16.613Z,92218.00
2022-11-16T05:53:22.618Z,92219.06
2022-11-16T05:56:27.030Z,92220.00
2022-11-16T05:59:31.071Z,92212.56
2022-11-16T06:02:37.219Z,92205.94
2022-11-16T06:05:40.901Z,92201.50
2022-11-16T06:08:48.734Z,92206.53
2022-11-16T06:11:57.149Z,92200.81
2022-11-16T06:15:00.789Z,92203.69
2022-11-16T06:18:04.920Z,92189.34
2022-11-16T06:21:09.531Z,92197.03
2022-11-16T06:24:13.164Z,92194.09
2022-11-16T06:27:18.425Z,92197.94
2022-11-16T06:30:22.071Z,92193.50
2022-11-16T06:33:29.596Z,92194.41
2022-11-16T06:36:35.880Z,92196.72
2022-11-16T06:39:40.589Z,92189.63
2022-11-16T06:42:44.893Z,92177.34
2022-11-16T06:45:51.986Z,92183.16
2022-11-16T06:48:57.084Z,92179.75
2022-11-16T06:52:01.321Z,92181.53
2022-11-16T06:55:05.567Z,92182.53
2022-11-16T06:58:12.153Z,92193.63
2022-11-16T07:01:17.370Z,92187.19
2022-11-16T07:04:23.813Z,92195.00
2022-11-16T07:07:32.566Z,92187.44
2022-11-16T07:10:39.173Z,92188.25
2022-11-16T07:13:43.692Z,92191.91
2022-11-16T07:16:47.635Z,92194.50
2022-11-16T07:19:51.581Z,92204.22
2022-11-16T07:22:56.176Z,92195.75
2022-11-16T07:26:07.139Z,92196.97
2022-11-16T07:29:27.896Z,92192.88
2022-11-16T07:33:04.829Z,92181.22
2022-11-16T07:36:27.396Z,92168.25
2022-11-16T07:39:31.885Z,92157.28
2022-11-16T07:42:36.069Z,92157.16
2022-11-16T07:49:40.057Z,92141.00
2022-11-16T07:52:48.949Z,92134.78
2022-11-16T07:55:57.660Z,92132.78
2022-11-16T07:59:02.923Z,92127.53
2022-11-16T08:02:11.609Z,92128.38
2022-11-16T08:05:17.112Z,92115.75
2022-11-16T08:08:20.919Z,92111.50
2022-11-16T08:11:25.532Z,92114.56
2022-11-16T08:14:29.426Z,92112.44
2022-11-16T08:17:32.770Z,92118.94
2022-11-16T08:20:38.327Z,92130.13
2022-11-16T08:23:42.664Z,92140.13
2022-11-16T08:26:46.718Z,92142.66
2022-11-16T08:29:51.234Z,92150.97
2022-11-16T08:32:54.663Z,92151.13
2022-11-16T08:35:57.748Z,92145.94
2022-11-16T08:39:01.840Z,92144.03
2022-11-16T08:42:07.556Z,92145.03
2022-11-16T08:45:12.122Z,92148.59
2022-11-16T08:48:17.305Z,92139.53
2022-11-16T08:51:21.329Z,92131.25
2022-11-16T08:54:32.121Z,92126.69
2022-11-16T08:57:36.173Z,92132.78
2022-11-16T09:00:44.088Z,92123.53
2022-11-16T09:03:48.325Z,92126.91
2022-11-16T09:06:53.485Z,92137.88
2022-11-16T09:09:57.739Z,92120.50
2022-11-16T09:13:01.720Z,92130.47
2022-11-16T09:16:06.523Z,92120.13
2022-11-16T09:19:11.253Z,92132.75
2022-11-16T09:22:15.113Z,92123.63
2022-11-16T09:25:19.681Z,92122.34
2022-11-16T09:28:24.497Z,92122.50
2022-11-16T09:31:29.474Z,92120.47
2022-11-16T09:34:35.832Z,92115.81
2022-11-16T09:37:39.191Z,92117.44
2022-11-16T09:40:46.870Z,92119.72
2022-11-16T09:44:10.301Z,92110.06
2022-11-16T09:47:27.806Z,92112.84
2022-11-16T09:50:57.659Z,92110.47
2022-11-16T09:54:07.677Z,92103.53
2022-11-16T09:57:16.181Z,92113.91
2022-11-16T10:00:26.806Z,92111.09
2022-11-16T10:03:36.871Z,92109.22
2022-11-16T10:07:02.177Z,92101.06
2022-11-16T16:24:56.038Z,92263.72
2022-11-16T16:27:59.890Z,92265.47
2022-11-16T16:31:03.726Z,92273.72
2022-11-16T16:34:13.287Z,92280.31
2022-11-16T16:37:19.488Z,92283.94
2022-11-16T16:40:24.257Z,92289.25
2022-11-16T16:43:38.721Z,92281.97
2022-11-16T16:46:42.980Z,92283.53
2022-11-16T16:49:48.204Z,92285.19
2022-11-16T16:52:52.279Z,92288.69
2022-11-16T16:55:56.162Z,92290.41
2022-11-16T16:59:01.038Z,92293.16
2022-11-16T17:02:04.803Z,92295.66
2022-11-16T17:05:08.889Z,92304.56
2022-11-16T17:08:12.777Z,92309.63
2022-11-16T17:11:18.452Z,92303.44
2022-11-16T17:14:25.080Z,92307.50
2022-11-16T17:17:29.976Z,92311.16
2022-11-16T17:20:34.402Z,92317.69
2022-11-16T17:23:38.951Z,92313.78
2022-11-16T17:26:43.241Z,92315.63
2022-11-16T17:29:46.940Z,92324.09
2022-11-16T17:32:51.455Z,92331.88
2022-11-16T17:35:59.412Z,92331.47
2022-11-16T17:39:03.336Z,92326.53
2022-11-16T17:42:12.586Z,92328.66
2022-11-16T17:45:16.354Z,92333.53
2022-11-16T17:48:20.407Z,92336.03
2022-11-16T17:51:27.635Z,92329.03
2022-11-16T17:54:31.460Z,92331.06
2022-11-16T17:57:35.224Z,92344.19
2022-11-16T18:00:39.384Z,92340.13
2022-11-16T18:03:43.295Z,92346.63
2022-11-16T18:06:47.596Z,92341.06
2022-11-16T18:09:51.359Z,92353.31
2022-11-16T18:12:55.606Z,92349.31
2022-11-16T18:16:13.123Z,92362.31
2022-11-16T18:19:20.121Z,92358.44
2022-11-16T18:22:23.846Z,92368.16
2022-11-16T18:25:28.353Z,92364.09
2022-11-16T18:28:32.810Z,92371.16
2022-11-16T18:31:36.538Z,92368.53
2022-11-16T18:34:39.886Z,92374.56
2022-11-16T18:37:43.811Z,92370.19
2022-11-16T18:40:46.952Z,92372.41
2022-11-16T18:43:58.427Z,92372.41
2022-11-16T18:47:03.131Z,92381.38
2022-11-16T18:50:18.042Z,92385.22
2022-11-16T18:53:22.846Z,92386.84
2022-11-16T18:56:27.444Z,92390.66
2022-11-16T18:59:30.867Z,92393.88
2022-11-16T19:02:33.794Z,92391.31
2022-11-16T19:05:37.871Z,92390.75
2022-11-16T19:08:41.997Z,92398.94
2022-11-16T19:11:45.150Z,92416.50
2022-11-16T19:14:48.141Z,92408.63
2022-11-16T19:18:14.590Z,92396.69
2022-11-16T19:21:16.636Z,92402.03
2022-11-16T19:24:20.242Z,92413.09
2022-11-16T19:27:23.080Z,92411.84
2022-11-16T19:30:27.154Z,92414.47
2022-11-16T19:33:30.915Z,92415.03
2022-11-16T19:36:36.889Z,92412.63
2022-11-16T19:39:40.623Z,92410.50
2022-11-16T19:42:44.588Z,92414.84
2022-11-16T19:45:47.491Z,92406.03
2022-11-16T19:48:52.168Z,92403.00
2022-11-16T19:51:55.853Z,92402.72
2022-11-16T19:54:59.947Z,92388.75
2022-11-16T19:58:03.735Z,92401.75
2022-11-16T20:01:08.627Z,92400.28
2022-11-16T20:04:11.723Z,92403.28
2022-11-16T20:07:18.886Z,92401.00
2022-11-16T20:10:22.286Z,92405.56
2022-11-16T20:13:25.660Z,92410.03
2022-11-16T20:16:38.155Z,92413.91
2022-11-16T20:19:42.600Z,92414.88
2022-11-16T20:22:49.314Z,92414.56
2022-11-16T20:25:53.472Z,92415.03
2022-11-16T20:28:57.655Z,92416.78
2022-11-16T20:32:01.593Z,92415.91
2022-11-16T20:35:04.781Z,92422.78
2022-11-16T20:38:08.897Z,92429.25
2022-11-16T20:41:14.521Z,92430.72
2022-11-16T20:44:22.767Z,92434.97
2022-11-16T20:47:25.976Z,92438.97
2022-11-16T20:50:30.058Z,92448.19
2022-11-16T20:53:34.002Z,92450.28
2022-11-16T20:56:38.142Z,92457.88
2022-11-16T20:59:41.324Z,92461.28
2022-11-16T21:02:45.385Z,92460.97
2022-11-16T21:05:52.689Z,92464.63
2022-11-16T21:08:56.658Z,92473.16
2022-11-16T21:12:18.661Z,92463.00
2022-11-16T21:15:22.009Z,92472.47
2022-11-16T21:18:30.554Z,92468.44
2022-11-16T21:21:35.215Z,92472.34
2022-11-16T21:24:38.202Z,92480.75
2022-11-16T21:27:42.084Z,92487.56
2022-11-16T21:30:58.851Z,92490.75
2022-11-16T21:34:02.708Z,92486.31
2022-11-16T21:37:05.839Z,92510.53
2022-11-16T21:40:09.471Z,92521.81
2022-11-16T21:43:15.530Z,92532.72
2022-11-16T21:46:21.153Z,92536.00
2022-11-16T21:49:25.075Z,92544.34
2022-11-16T21:52:29.813Z,92543.19
2022-11-16T21:55:33.750Z,92549.78
2022-11-16T21:58:37.100Z,92541.16
2022-11-16T22:01:59.815Z,92558.44
2022-11-16T22:05:22.733Z,92560.94
2022-11-16T22:08:25.795Z,92554.66
2022-11-16T22:11:29.795Z,92557.72
2022-11-16T22:14:32.702Z,92564.88
2022-11-16T22:17:36.706Z,92573.75
2022-11-16T22:20:40.738Z,92580.13
2022-11-16T22:23:44.715Z,92594.91
2022-11-16T22:26:48.905Z,92601.81
2022-11-16T22:29:53.049Z,92603.31
2022-11-16T22:32:56.064Z,92607.97
2022-11-16T22:36:00.139Z,92613.66
2022-11-16T22:39:03.544Z,92616.50
2022-11-16T22:42:06.775Z,92612.78
2022-11-16T22:45:10.181Z,92619.59
2022-11-16T22:48:14.197Z,92619.59
2022-11-16T22:51:29.217Z,92637.34
2022-11-16T22:54:35.213Z,92639.97
2022-11-16T22:57:39.175Z,92638.38
2022-11-16T23:00:42.856Z,92645.31
2022-11-16T23:03:46.997Z,92647.41
2022-11-16T23:06:51.094Z,92654.69
2022-11-16T23:09:55.287Z,92679.16
2022-11-16T23:13:17.141Z,92690.97
2022-11-16T23:16:21.392Z,92699.56
2022-11-16T23:19:44.007Z,92687.34
2022-11-16T23:23:06.583Z,92691.09
2022-11-16T23:26:41.767Z,92704.97
2022-11-16T23:29:46.244Z,92718.41
2022-11-16T23:32:50.638Z,92713.75
2022-11-16T23:35:54.993Z,92731.41
2022-11-16T23:38:58.238Z,92729.34
2022-11-16T23:42:20.698Z,92739.56
2022-11-16T23:45:24.513Z,92743.31
2022-11-16T23:48:28.337Z,92757.47
2022-11-16T23:51:32.130Z,92760.91
2022-11-16T23:54:36.006Z,92761.81
2022-11-16T23:57:39.358Z,92771.19
